Hovedside
METAR-TAF:

METAR-TAF

Lufthavner :

Lakselv lufthavn. Banak

Lakselv, Norge

breddegrad: 70-04N, lengdegrad: 024-59E, høyde over havet: 0 m

Gjeldene værobservasjon

Denne rapporten ble laget for 36 minutter siden, klokken 03:50 UTC
Vind 16 kt fra Sør
Temperatur -13°C
Luftfuktighet 72%
Trykk 1010 hPa
Sikt 10 km eller mer
lett snø

METAR: ENNA 290350Z AUTO 18016KT 9999 -SN FEW018/// BKN025/// OVC120/// M13/M17 Q1010 RMK WIND 1800FT 18050KT

Tid: 05:26 (04:26 UTC)

Varsel

Varsel gyldig fra 29. klokken 00 UTC til 29. klokken 24 UTC
Vind 18 kt fra Sør
Sikt 10 km eller mer
Få skyer i en høyde av 1000 ft
Midlertidig
fra 29. klokken 00 UTC til 29. klokken 24 UTC
Vind 28 kt fra Sør
lavt snøfokk
Sannsynlighet 40% :
Midlertidig
fra 29. klokken 03 UTC til 29. klokken 24 UTC
Sikt: 4000 m
i en høyde av 1200 ft
lett snø

TAF: ENNA 2900/2924 18018KT 9999 FEW010 TEMPO 2900/2924 18028KT DRSN PROB40 TEMPO 2903/2924 4000 -SN VV012

Værobservasjoner og værvarsel for over 4000 flyplasser (METAR- og TAF-rapporter).

Tilgjengelige stasjoner er representert av de røde og gule prikkene på kartet.

Hold musepekeren over prikken for å se navnet på stasjonen.

Klikk så for å se værobservasjoner og -varsler.

For å forandre kartet kan du klikke på den grønne knappen med svart kryss for å zoome inn, på den grønne knappen med strek for å zoome ut, eller på de grønne pilene for å se tilstøtende kart.


METAR-TAF: